Terminal Aerodrome Forecast
Issued by NWS

Home | Current Version | Previous Version | Text Only | Print | Product List | Glossary On
Versions: 1 2 3 4 5 6 7 8 9 10 11 12 13 14 15 16 17 18 19 20
506
FTUS43 KGRR 011237 AAA
TAFBTL
TAF AMD
KBTL 011237Z 0113/0212 05006KT 3SM BR OVC003
      TEMPO 0113/0115 1SM -DZ BR
     FM011500 04006KT 5SM BR OVC007
     FM012000 04006KT P6SM OVC012
     FM020100 03009KT 4SM -RA BR OVC004=

USA.gov is the U.S. government's official web portal to all federal, state and local government web resources and services.